DW7764 Weather Reports


time (UTC)temp
C
wind
direction
speed
KPH
gust
KPH
rain 1hr
cm
rain 24hr
cm
rain mn
cm
humidity
%
barometer
mb
20190425023053 13 170 0.0 3.2 0.00 0.00 0.00 89 1014.7
20190425021620 13 116 0.0 6.4 0.00 0.00 0.00 88 1014.8
20190425020047 13 136 1.6 6.4 0.00 0.00 0.00 88 1015.3
20190425014552 13 114 1.6 11.3 0.00 0.00 0.00 88 1015.3
20190425013033 13 112 4.8 11.3 0.00 0.00 0.00 88 1015.6
20190425011623 13 142 3.2 6.4 0.00 0.00 0.00 88 1015.5
20190425010039 13 99 3.2 11.3 0.00 0.00 0.00 88 1015.7
20190425004527 12 138 3.2 9.7 0.00 0.00 0.00 88 1015.8
20190425003017 12 128 1.6 8.0 0.00 0.00 0.00 88 1016.1
20190425001533 12 146 0.0 6.4 0.00 0.00 0.00 88 1016.2
20190425000035 11 139 0.0 0.0 0.00 0.00 0.00 88 1016.2
20190424234509 11 149 0.0 0.0 0.00 0.00 0.00 89 1016.5
20190424233133 11 149 0.0 0.0 0.00 0.00 0.00 89 1016.3
20190424231750 10 149 0.0 0.0 0.00 0.00 0.00 88 1016.3
20190424230158 10 149 0.0 0.0 0.00 0.00 0.00 88 1016.3
20190424224644 10 149 0.0 0.0 0.00 0.00 0.00 88 1016.5
20190424223140 9 149 0.0 0.0 0.00 0.00 0.00 89 1016.6
20190424221607 9 149 0.0 0.0 0.00 0.00 0.00 88 1016.6
20190424220115 9 149 0.0 0.0 0.00 0.00 0.00 88 1016.6
20190424214628 9 149 0.0 0.0 0.00 0.00 0.00 87 1016.6
20190424213125 9 149 0.0 0.0 0.00 0.00 0.00 87 1016.6
20190424211709 9 149 0.0 0.0 0.00 0.00 0.00 85 1016.6
20190424210052 10 149 0.0 0.0 0.00 0.00 0.00 83 1016.6
20190424204558 10 149 0.0 0.0 0.00 0.00 0.00 82 1016.8
20190424203039 10 149 0.0 0.0 0.00 0.00 0.00 82 1016.5
20190424201603 10 149 0.0 0.0 0.00 0.00 0.00 80 1016.6
20190424200054 10 149 0.0 0.0 0.00 0.00 0.00 78 1016.4
20190424194539 11 149 0.0 0.0 0.00 0.00 0.00 75 1016.2
20190424193110 11 149 0.0 3.2 0.00 0.00 0.00 73 1015.7
20190424191543 12 142 0.0 0.0 0.00 0.00 0.00 70 1015.6
20190424190120 12 131 0.0 4.8 0.00 0.00 0.00 68 1015.3
20190424184519 13 139 0.0 4.8 0.00 0.00 0.00 66 1015.1
20190424183022 13 200 3.2 9.7 0.00 0.00 0.00 63 1015.0
20190424181531 13 159 4.8 9.7 0.00 0.00 0.00 61 1014.7
20190424180025 15 225 1.6 11.3 0.00 0.00 0.00 58 1014.7
20190424174534 15 206 1.6 9.7 0.00 0.00 0.00 56 1014.6
20190424173022 15 274 4.8 16.1 0.00 0.00 0.00 53 1014.6
20190424171541 16 56 3.2 9.7 0.00 0.00 0.00 52 1014.4
20190424170016 16 89 4.8 16.1 0.00 0.00 0.00 51 1014.3
20190424164515 16 166 3.2 16.1 0.00 0.00 0.00 50 1014.3
20190424163032 16 249 1.6 16.1 0.00 0.00 0.00 49 1014.0
20190424161537 17 117 3.2 12.9 0.00 0.00 0.00 48 1013.8
20190424160007 17 146 3.2 14.5 0.00 0.00 0.00 50 1013.6
20190424154506 17 126 1.6 14.5 0.00 0.00 0.00 51 1013.6
20190424153024 16 285 0.0 14.5 0.00 0.00 0.00 53 1013.6
20190424151504 16 267 0.0 9.7 0.00 0.00 0.00 54 1013.6
20190424150003 15 239 1.6 11.3 0.00 0.00 0.00 54 1013.8
20190424144502 15 158 4.8 17.7 0.00 0.00 0.00 55 1013.9
20190424143006 15 223 4.8 17.7 0.00 0.00 0.00 56 1014.0
20190424141644 15 219 1.6 20.9 0.00 0.00 0.00 56 1014.0
20190424141501 15 204 3.2 20.9 0.00 0.00 0.00 56 1014.1
20190424140319 15 149 4.8 17.7 0.00 0.00 0.00 56 1014.0
20190424134728 16 153 8.0 19.3 0.00 0.00 0.00 52 1013.7
20190424133139 16 165 3.2 16.1 0.00 0.00 0.00 44 1013.5
20190424131706 17 131 4.8 22.5 0.00 0.00 0.00 43 1013.5
20190424130123 18 131 4.8 19.3 0.00 0.00 0.00 44 1013.4
20190424124635 18 102 6.4 22.5 0.00 0.00 0.00 40 1013.1
20190424123126 18 215 12.9 22.5 0.00 0.00 0.00 39 1013.1
20190424121632 18 174 4.8 20.9 0.00 0.00 0.00 44 1012.9
20190424120145 18 205 6.4 22.5 0.00 0.00 0.00 43 1012.8
20190424114650 17 128 9.7 25.7 0.00 0.00 0.00 45 1012.7
20190424113140 16 127 3.2 11.3 0.00 0.00 0.00 49 1012.8
20190424111600 16 205 6.4 17.7 0.00 0.00 0.00 50 1012.9
20190424110104 16 131 8.0 22.5 0.00 0.00 0.00 50 1012.7
20190424104601 17 165 1.6 11.3 0.00 0.00 0.00 48 1012.7
20190424103102 17 211 3.2 11.3 0.00 0.00 0.00 45 1012.7
20190424101618 16 214 1.6 14.5 0.00 0.00 0.00 49 1012.8
20190424100116 16 148 6.4 11.3 0.00 0.00 0.00 49 1012.7
20190424094614 17 103 3.2 11.3 0.00 0.00 0.00 48 1012.6
20190424093105 16 283 3.2 12.9 0.00 0.00 0.00 50 1012.4
20190424091601 16 231 0.0 6.4 0.00 0.00 0.00 53 1012.5
20190424090110 16 253 1.6 9.7 0.00 0.00 0.00 52 1012.3
20190424084548 15 274 4.8 14.5 0.00 0.05 0.00 54 1012.2
20190424083030 15 245 3.2 9.7 0.00 0.05 0.00 54 1011.6
20190424081546 15 273 1.6 12.9 0.00 0.05 0.00 56 1011.5
20190424080051 15 195 3.2 9.7 0.00 0.05 0.00 57 1011.2
20190424074519 14 253 0.0 9.7 0.00 0.05 0.00 60 1010.8
20190424073023 13 285 1.6 11.3 0.00 0.05 0.00 63 1010.6
20190424071518 12 276 1.6 8.0 0.00 0.05 0.00 66 1010.5
20190424070013 11 213 0.0 1.6 0.00 0.05 0.00 71 1010.3
20190424064507 12 278 0.0 3.2 0.00 0.05 0.00 70 1010.0
20190424063149 12 246 0.0 1.6 0.00 0.05 0.00 71 1009.8
20190424063002 12 246 0.0 1.6 0.00 0.05 0.00 70 1009.7
20190424060127 10 255 0.0 1.6 0.00 0.05 0.00 74 1009.2
20190424054652 10 262 0.0 3.2 0.00 0.08 0.00 75 1008.9
20190424053156 10 304 0.0 6.4 0.00 0.08 0.00 79 1008.7
20190424051628 9 295 0.0 0.0 0.00 0.08 0.00 88 1008.5
20190424050151 10 330 0.0 0.0 0.00 0.08 0.00 90 1008.0
20190424044631 10 330 0.0 0.0 0.00 0.13 0.00 93 1007.7
20190424043135 11 285 0.0 1.6 0.00 0.13 0.00 94 1007.5
20190424041600 11 285 0.0 3.2 0.00 0.13 0.00 94 1007.4
20190424040129 11 151 0.0 0.0 0.00 0.13 0.00 94 1007.4
20190424034654 11 150 0.0 0.0 0.00 0.13 0.00 94 1007.2
20190424033052 11 160 0.0 0.0 0.00 0.13 0.00 94 1007.2
20190424031558 11 161 0.0 0.0 0.00 0.13 0.00 93 1007.1
20190424030042 11 161 0.0 0.0 0.00 0.13 0.00 91 1006.9
20190424024529 12 149 0.0 0.0 0.00 0.13 0.00 91 1006.4